Airfield :
LOGIN :

Register | Disclaimer

   EN    FR    IT 

 










Legend :    VFR   Marginal VFR   IFR   Intensive IFR   Very Intensive IFR
Visi :
Ceiling :
>= 8 km
>= 3000ft
5 to 8 km
1000 to 3000 ft
1500m to 5 km
500 to 1000 ft
800 to 1500m
200 to 500 ft
< 800m
< 200 ft
Symbols :   Thunderstorms  Fog  Heavy snow  Heavy precipitations  Wind > 20 kt
SIGMETs :     Misc.  Thunderstorms  Icing  Turbulence  Mountain Waves  Volcanic Ashes






- Airport Elevation : 375 ft
- IATA code : MST


EHBK - Maastricht Aachen

CURRENT METAR :
  • 021925Z AUTO 10003KT 080V140 9999 NCD 15/12 Q1015 NOSIG

EXPIRED METARs :
  • 021855Z AUTO 03002KT 9999 NCD 16/12 Q1015 NOSIG
  • 021825Z AUTO 05003KT 020V090 9999 NCD 17/13 Q1015 NOSIG
  • 021755Z AUTO 02003KT 340V060 9999 SCT031 17/13 Q1014 NOSIG
  • 021725Z AUTO 02007KT 9999 FEW030 17/13 Q1014 NOSIG
  • 021655Z AUTO 27004KT 230V330 9999 FEW029 18/11 Q1014 NOSIG

TAF TAF EHBK
Valid from the 02 at 18:00 until the 04 at 00:00 UTC


021659Z 0218/0324 VRB03KT 9999 FEW030
TEMPO 0303/0313 6000 -RADZ
PROB30
TEMPO 0307/0313 4000 RA SHRA BKN014 FEW050CB
PROB30
TEMPO 0313/0320 6000 SHRA SCT020CB



MET'MAP, your aeronautical weather chart ! - Copyright ORBIFLY December 2007 - Disclaimer

ORBIFLY MET'MAP TEAM :

Programming & Development : Alexandra Zaïnal
Concept & original design : Baudouin d'Aumeries
Assistance for programming : Marc-Olivier Méhu
Technical & hardware support : Manuel Goepfert

Contact : metmap@orbifly.com




SOURCES & CREDITS :

   NOAA